Guidonia Airport LIRG

Flugplatz Daten

Name: Guidonia Airport

Ident: LIRG

Lat: 41,99029922

Long: 12,7407999

Platzhöhe: 289 ft

IataCode:

City: Guidonia

Metar

2021/12/03 17:55
LIRG 031755Z 33012KT CAVOK 09/04 Q1008

Taf

Gewünschte Webcam nicht vorhanden? Dann fügen Sie eine hinzu. Sie wird dann so schnell wie möglich freigeschaltet
Url: Title: